sensor_id;sensor_type;location;lat;lon;timestamp;temperature;humidity
26107;DHT22;13866;50.748;12.630;2023-08-21T00:01:06;20.80;99.90
26107;DHT22;13866;50.748;12.630;2023-08-21T00:03:31;20.70;99.90
26107;DHT22;13866;50.748;12.630;2023-08-21T00:05:57;20.70;99.90
26107;DHT22;13866;50.748;12.630;2023-08-21T00:08:22;20.70;99.90
26107;DHT22;13866;50.748;12.630;2023-08-21T00:10:48;20.80;99.90
26107;DHT22;13866;50.748;12.630;2023-08-21T00:13:13;20.80;99.90
26107;DHT22;13866;50.748;12.630;2023-08-21T00:15:39;20.80;99.90
26107;DHT22;13866;50.748;12.630;2023-08-21T00:18:05;20.80;99.90
26107;DHT22;13866;50.748;12.630;2023-08-21T00:20:31;20.70;99.90
26107;DHT22;13866;50.748;12.630;2023-08-21T00:22:57;20.60;99.90
26107;DHT22;13866;50.748;12.630;2023-08-21T00:25:22;20.60;99.90
26107;DHT22;13866;50.748;12.630;2023-08-21T00:27:48;20.60;99.90
26107;DHT22;13866;50.748;12.630;2023-08-21T00:30:13;20.70;99.90
26107;DHT22;13866;50.748;12.630;2023-08-21T00:32:42;20.60;99.90
26107;DHT22;13866;50.748;12.630;2023-08-21T00:35:07;20.50;99.90
26107;DHT22;13866;50.748;12.630;2023-08-21T00:37:33;20.60;99.90
26107;DHT22;13866;50.748;12.630;2023-08-21T00:39:59;20.60;99.90
26107;DHT22;13866;50.748;12.630;2023-08-21T00:42:24;20.50;99.90
26107;DHT22;13866;50.748;12.630;2023-08-21T00:44:50;20.50;99.90
26107;DHT22;13866;50.748;12.630;2023-08-21T00:47:15;20.50;99.90
26107;DHT22;13866;50.748;12.630;2023-08-21T00:49:41;20.60;99.90
26107;DHT22;13866;50.748;12.630;2023-08-21T00:52:11;20.60;99.90
26107;DHT22;13866;50.748;12.630;2023-08-21T00:54:37;20.50;99.90
26107;DHT22;13866;50.748;12.630;2023-08-21T00:57:03;20.50;99.90
26107;DHT22;13866;50.748;12.630;2023-08-21T00:59:29;20.50;99.90
26107;DHT22;13866;50.748;12.630;2023-08-21T01:01:55;20.50;99.90
26107;DHT22;13866;50.748;12.630;2023-08-21T01:04:21;20.60;99.90
26107;DHT22;13866;50.748;12.630;2023-08-21T01:06:48;20.40;99.90
26107;DHT22;13866;50.748;12.630;2023-08-21T01:12:17;20.30;99.90
26107;DHT22;13866;50.748;12.630;2023-08-21T01:15:06;20.30;99.90
26107;DHT22;13866;50.748;12.630;2023-08-21T01:17:37;20.30;99.90
26107;DHT22;13866;50.748;12.630;2023-08-21T01:20:04;20.30;99.90
26107;DHT22;13866;50.748;12.630;2023-08-21T01:22:39;20.30;99.90
26107;DHT22;13866;50.748;12.630;2023-08-21T01:25:06;20.30;99.90
26107;DHT22;13866;50.748;12.630;2023-08-21T01:27:33;20.30;99.90
26107;DHT22;13866;50.748;12.630;2023-08-21T01:30:00;20.20;99.90
26107;DHT22;13866;50.748;12.630;2023-08-21T01:32:41;20.20;99.90
26107;DHT22;13866;50.748;12.630;2023-08-21T01:35:09;20.20;99.90
26107;DHT22;13866;50.748;12.630;2023-08-21T01:37:36;20.10;99.90
26107;DHT22;13866;50.748;12.630;2023-08-21T01:40:02;20.10;99.90
26107;DHT22;13866;50.748;12.630;2023-08-21T01:42:27;20.10;99.90
26107;DHT22;13866;50.748;12.630;2023-08-21T01:44:53;20.10;99.90
26107;DHT22;13866;50.748;12.630;2023-08-21T01:47:18;20.00;99.90
26107;DHT22;13866;50.748;12.630;2023-08-21T01:49:44;20.00;99.90
26107;DHT22;13866;50.748;12.630;2023-08-21T01:52:09;20.10;99.90
26107;DHT22;13866;50.748;12.630;2023-08-21T01:54:35;20.10;99.90
26107;DHT22;13866;50.748;12.630;2023-08-21T01:57:01;20.10;99.90
26107;DHT22;13866;50.748;12.630;2023-08-21T01:59:26;20.10;99.90
26107;DHT22;13866;50.748;12.630;2023-08-21T02:01:52;20.10;99.90
26107;DHT22;13866;50.748;12.630;2023-08-21T02:04:19;20.10;99.90
26107;DHT22;13866;50.748;12.630;2023-08-21T02:06:44;20.10;99.90
26107;DHT22;13866;50.748;12.630;2023-08-21T02:09:10;20.00;99.90
26107;DHT22;13866;50.748;12.630;2023-08-21T02:11:35;20.00;99.90
26107;DHT22;13866;50.748;12.630;2023-08-21T02:14:02;19.90;99.90
26107;DHT22;13866;50.748;12.630;2023-08-21T02:16:27;19.90;99.90
26107;DHT22;13866;50.748;12.630;2023-08-21T02:18:53;19.90;99.90
26107;DHT22;13866;50.748;12.630;2023-08-21T02:21:18;20.00;99.90
26107;DHT22;13866;50.748;12.630;2023-08-21T02:23:44;20.00;99.90
26107;DHT22;13866;50.748;12.630;2023-08-21T02:26:09;20.00;99.90
26107;DHT22;13866;50.748;12.630;2023-08-21T02:28:35;19.90;99.90
26107;DHT22;13866;50.748;12.630;2023-08-21T02:31:00;19.80;99.90
26107;DHT22;13866;50.748;12.630;2023-08-21T02:33:26;19.80;99.90
26107;DHT22;13866;50.748;12.630;2023-08-21T02:35:51;19.80;99.90
26107;DHT22;13866;50.748;12.630;2023-08-21T02:38:17;19.80;99.90
26107;DHT22;13866;50.748;12.630;2023-08-21T02:40:42;19.80;99.90
26107;DHT22;13866;50.748;12.630;2023-08-21T02:43:08;19.80;99.90
26107;DHT22;13866;50.748;12.630;2023-08-21T02:45:33;19.80;99.90
26107;DHT22;13866;50.748;12.630;2023-08-21T02:47:59;19.80;99.90
26107;DHT22;13866;50.748;12.630;2023-08-21T02:50:24;19.80;99.90
26107;DHT22;13866;50.748;12.630;2023-08-21T02:52:50;19.70;99.90
26107;DHT22;13866;50.748;12.630;2023-08-21T02:55:15;19.60;99.90
26107;DHT22;13866;50.748;12.630;2023-08-21T02:57:41;19.60;99.90
26107;DHT22;13866;50.748;12.630;2023-08-21T03:00:07;19.50;99.90
26107;DHT22;13866;50.748;12.630;2023-08-21T03:02:37;19.50;99.90
26107;DHT22;13866;50.748;12.630;2023-08-21T03:05:03;19.40;99.90
26107;DHT22;13866;50.748;12.630;2023-08-21T03:07:29;19.40;99.90
26107;DHT22;13866;50.748;12.630;2023-08-21T03:09:55;19.40;99.90
26107;DHT22;13866;50.748;12.630;2023-08-21T03:12:20;19.40;99.90
26107;DHT22;13866;50.748;12.630;2023-08-21T03:14:46;19.40;99.90
26107;DHT22;13866;50.748;12.630;2023-08-21T03:17:11;19.40;99.90
26107;DHT22;13866;50.748;12.630;2023-08-21T03:19:37;19.40;99.90
26107;DHT22;13866;50.748;12.630;2023-08-21T03:22:03;19.30;99.90
26107;DHT22;13866;50.748;12.630;2023-08-21T03:24:28;19.30;99.90
26107;DHT22;13866;50.748;12.630;2023-08-21T03:26:54;19.30;99.90
26107;DHT22;13866;50.748;12.630;2023-08-21T03:29:19;19.20;99.90
26107;DHT22;13866;50.748;12.630;2023-08-21T03:31:49;19.30;99.90
26107;DHT22;13866;50.748;12.630;2023-08-21T03:34:14;19.30;99.90
26107;DHT22;13866;50.748;12.630;2023-08-21T03:36:40;19.20;99.90
26107;DHT22;13866;50.748;12.630;2023-08-21T03:39:05;19.20;99.90
26107;DHT22;13866;50.748;12.630;2023-08-21T03:41:31;19.20;99.90
26107;DHT22;13866;50.748;12.630;2023-08-21T03:43:57;19.20;99.90
26107;DHT22;13866;50.748;12.630;2023-08-21T03:46:22;19.20;99.90
26107;DHT22;13866;50.748;12.630;2023-08-21T03:48:48;19.20;99.90
26107;DHT22;13866;50.748;12.630;2023-08-21T03:51:13;19.20;99.90
26107;DHT22;13866;50.748;12.630;2023-08-21T03:53:39;19.30;99.90
26107;DHT22;13866;50.748;12.630;2023-08-21T03:56:04;19.30;99.90
26107;DHT22;13866;50.748;12.630;2023-08-21T03:58:32;19.30;99.90
26107;DHT22;13866;50.748;12.630;2023-08-21T04:00:57;19.30;99.90
26107;DHT22;13866;50.748;12.630;2023-08-21T04:03:23;19.20;99.90
26107;DHT22;13866;50.748;12.630;2023-08-21T04:05:48;19.30;99.90
26107;DHT22;13866;50.748;12.630;2023-08-21T04:08:14;19.20;99.90
26107;DHT22;13866;50.748;12.630;2023-08-21T04:10:39;19.20;99.90
26107;DHT22;13866;50.748;12.630;2023-08-21T04:13:07;19.20;99.90
26107;DHT22;13866;50.748;12.630;2023-08-21T04:15:33;19.20;99.90
26107;DHT22;13866;50.748;12.630;2023-08-21T04:18:00;19.10;99.90
26107;DHT22;13866;50.748;12.630;2023-08-21T04:20:25;19.10;99.90
26107;DHT22;13866;50.748;12.630;2023-08-21T04:22:51;19.10;99.90
26107;DHT22;13866;50.748;12.630;2023-08-21T04:25:17;19.00;99.90
26107;DHT22;13866;50.748;12.630;2023-08-21T04:27:43;18.90;99.90
26107;DHT22;13866;50.748;12.630;2023-08-21T04:30:09;19.00;99.90
26107;DHT22;13866;50.748;12.630;2023-08-21T04:32:35;19.00;99.90
26107;DHT22;13866;50.748;12.630;2023-08-21T04:35:00;19.00;99.90
26107;DHT22;13866;50.748;12.630;2023-08-21T04:37:26;19.00;99.90
26107;DHT22;13866;50.748;12.630;2023-08-21T04:39:55;19.00;99.90
26107;DHT22;13866;50.748;12.630;2023-08-21T04:42:21;19.00;99.90
26107;DHT22;13866;50.748;12.630;2023-08-21T04:44:46;19.10;99.90
26107;DHT22;13866;50.748;12.630;2023-08-21T04:47:26;19.10;99.90
26107;DHT22;13866;50.748;12.630;2023-08-21T04:49:52;19.20;99.90
26107;DHT22;13866;50.748;12.630;2023-08-21T04:52:19;19.20;99.90
26107;DHT22;13866;50.748;12.630;2023-08-21T04:54:45;19.30;99.90
26107;DHT22;13866;50.748;12.630;2023-08-21T04:57:11;19.20;99.90
26107;DHT22;13866;50.748;12.630;2023-08-21T04:59:37;19.20;99.90
26107;DHT22;13866;50.748;12.630;2023-08-21T05:02:03;19.30;99.90
26107;DHT22;13866;50.748;12.630;2023-08-21T05:04:28;19.40;99.90
26107;DHT22;13866;50.748;12.630;2023-08-21T05:06:54;19.40;99.90
26107;DHT22;13866;50.748;12.630;2023-08-21T05:09:19;19.40;99.90
26107;DHT22;13866;50.748;12.630;2023-08-21T05:11:45;19.50;99.90
26107;DHT22;13866;50.748;12.630;2023-08-21T05:14:11;19.60;99.90
26107;DHT22;13866;50.748;12.630;2023-08-21T05:16:36;19.70;99.90
26107;DHT22;13866;50.748;12.630;2023-08-21T05:19:02;19.80;99.90
26107;DHT22;13866;50.748;12.630;2023-08-21T05:21:27;19.90;99.90
26107;DHT22;13866;50.748;12.630;2023-08-21T05:23:53;20.10;99.90
26107;DHT22;13866;50.748;12.630;2023-08-21T05:26:19;20.30;99.90
26107;DHT22;13866;50.748;12.630;2023-08-21T05:28:45;20.50;99.90
26107;DHT22;13866;50.748;12.630;2023-08-21T05:31:10;20.70;99.90
26107;DHT22;13866;50.748;12.630;2023-08-21T05:33:36;20.90;99.90
26107;DHT22;13866;50.748;12.630;2023-08-21T05:36:01;21.10;99.90
26107;DHT22;13866;50.748;12.630;2023-08-21T05:38:27;21.30;99.90
26107;DHT22;13866;50.748;12.630;2023-08-21T05:40:52;21.50;99.90
26107;DHT22;13866;50.748;12.630;2023-08-21T05:43:18;21.40;99.90
26107;DHT22;13866;50.748;12.630;2023-08-21T05:45:44;21.50;99.90
26107;DHT22;13866;50.748;12.630;2023-08-21T05:48:09;21.50;99.90
26107;DHT22;13866;50.748;12.630;2023-08-21T05:50:35;21.50;99.90
26107;DHT22;13866;50.748;12.630;2023-08-21T05:53:03;21.60;99.90
26107;DHT22;13866;50.748;12.630;2023-08-21T05:55:29;21.70;99.90
26107;DHT22;13866;50.748;12.630;2023-08-21T05:57:54;21.70;99.90
26107;DHT22;13866;50.748;12.630;2023-08-21T06:00:20;21.70;99.90
26107;DHT22;13866;50.748;12.630;2023-08-21T06:02:46;21.70;99.90
26107;DHT22;13866;50.748;12.630;2023-08-21T06:05:11;21.80;99.90
26107;DHT22;13866;50.748;12.630;2023-08-21T06:07:37;21.60;99.90
26107;DHT22;13866;50.748;12.630;2023-08-21T06:10:02;21.70;99.90
26107;DHT22;13866;50.748;12.630;2023-08-21T06:12:30;21.80;99.90
26107;DHT22;13866;50.748;12.630;2023-08-21T06:14:55;22.00;99.90
26107;DHT22;13866;50.748;12.630;2023-08-21T06:17:21;22.10;99.90
26107;DHT22;13866;50.748;12.630;2023-08-21T06:19:47;22.40;99.90
26107;DHT22;13866;50.748;12.630;2023-08-21T06:22:12;22.50;99.90
26107;DHT22;13866;50.748;12.630;2023-08-21T06:24:38;22.50;99.90
26107;DHT22;13866;50.748;12.630;2023-08-21T06:27:03;22.60;99.90
26107;DHT22;13866;50.748;12.630;2023-08-21T06:29:29;22.60;99.90
26107;DHT22;13866;50.748;12.630;2023-08-21T06:31:54;22.60;99.90
26107;DHT22;13866;50.748;12.630;2023-08-21T06:34:20;22.80;99.90
26107;DHT22;13866;50.748;12.630;2023-08-21T06:36:45;23.00;99.90
26107;DHT22;13866;50.748;12.630;2023-08-21T06:39:11;22.90;99.90
26107;DHT22;13866;50.748;12.630;2023-08-21T06:41:36;23.00;99.90
26107;DHT22;13866;50.748;12.630;2023-08-21T06:44:02;23.20;99.90
26107;DHT22;13866;50.748;12.630;2023-08-21T06:46:28;23.50;99.90
26107;DHT22;13866;50.748;12.630;2023-08-21T06:48:53;23.80;99.90
26107;DHT22;13866;50.748;12.630;2023-08-21T06:51:19;24.10;99.90
26107;DHT22;13866;50.748;12.630;2023-08-21T06:53:44;24.20;99.90
26107;DHT22;13866;50.748;12.630;2023-08-21T06:56:10;24.30;99.90
26107;DHT22;13866;50.748;12.630;2023-08-21T06:58:35;24.20;99.90
26107;DHT22;13866;50.748;12.630;2023-08-21T07:01:01;24.30;99.90
26107;DHT22;13866;50.748;12.630;2023-08-21T07:03:26;24.40;99.90
26107;DHT22;13866;50.748;12.630;2023-08-21T07:05:55;24.50;99.90
26107;DHT22;13866;50.748;12.630;2023-08-21T07:08:22;24.50;99.90
26107;DHT22;13866;50.748;12.630;2023-08-21T07:10:48;24.40;99.90
26107;DHT22;13866;50.748;12.630;2023-08-21T07:13:14;24.50;99.90
26107;DHT22;13866;50.748;12.630;2023-08-21T07:15:39;24.50;99.90
26107;DHT22;13866;50.748;12.630;2023-08-21T07:18:05;24.70;99.90
26107;DHT22;13866;50.748;12.630;2023-08-21T07:20:30;24.60;99.90
26107;DHT22;13866;50.748;12.630;2023-08-21T07:22:56;24.80;99.90
26107;DHT22;13866;50.748;12.630;2023-08-21T07:25:21;24.80;99.90
26107;DHT22;13866;50.748;12.630;2023-08-21T07:27:47;25.10;99.90
26107;DHT22;13866;50.748;12.630;2023-08-21T07:30:16;25.20;99.90
26107;DHT22;13866;50.748;12.630;2023-08-21T07:32:41;25.30;99.90
26107;DHT22;13866;50.748;12.630;2023-08-21T07:35:07;25.40;99.90
26107;DHT22;13866;50.748;12.630;2023-08-21T07:37:33;25.50;99.90
26107;DHT22;13866;50.748;12.630;2023-08-21T07:39:58;25.80;99.90
26107;DHT22;13866;50.748;12.630;2023-08-21T07:42:24;25.70;99.90
26107;DHT22;13866;50.748;12.630;2023-08-21T07:44:49;25.60;99.90
26107;DHT22;13866;50.748;12.630;2023-08-21T07:47:15;25.70;99.90
26107;DHT22;13866;50.748;12.630;2023-08-21T07:49:41;25.40;99.90
26107;DHT22;13866;50.748;12.630;2023-08-21T07:52:06;25.60;99.90
26107;DHT22;13866;50.748;12.630;2023-08-21T07:54:32;25.60;99.90
26107;DHT22;13866;50.748;12.630;2023-08-21T07:56:57;25.70;99.90
26107;DHT22;13866;50.748;12.630;2023-08-21T07:59:23;25.90;99.90
26107;DHT22;13866;50.748;12.630;2023-08-21T08:01:48;25.80;99.90
26107;DHT22;13866;50.748;12.630;2023-08-21T08:04:14;25.70;99.90
26107;DHT22;13866;50.748;12.630;2023-08-21T08:06:41;25.90;99.90
26107;DHT22;13866;50.748;12.630;2023-08-21T08:09:07;25.90;99.90
26107;DHT22;13866;50.748;12.630;2023-08-21T08:11:32;25.90;99.90
26107;DHT22;13866;50.748;12.630;2023-08-21T08:13:58;25.90;99.90
26107;DHT22;13866;50.748;12.630;2023-08-21T08:16:24;26.00;99.90
26107;DHT22;13866;50.748;12.630;2023-08-21T08:18:49;25.90;99.90
26107;DHT22;13866;50.748;12.630;2023-08-21T08:21:15;25.90;99.90
26107;DHT22;13866;50.748;12.630;2023-08-21T08:23:41;25.90;99.90
26107;DHT22;13866;50.748;12.630;2023-08-21T08:26:07;26.20;99.90
26107;DHT22;13866;50.748;12.630;2023-08-21T08:28:34;26.40;99.90
26107;DHT22;13866;50.748;12.630;2023-08-21T08:31:00;26.40;99.90
26107;DHT22;13866;50.748;12.630;2023-08-21T08:33:26;26.00;99.90
26107;DHT22;13866;50.748;12.630;2023-08-21T08:35:51;26.00;99.90
26107;DHT22;13866;50.748;12.630;2023-08-21T08:38:18;25.80;99.90
26107;DHT22;13866;50.748;12.630;2023-08-21T08:40:45;25.90;99.90
26107;DHT22;13866;50.748;12.630;2023-08-21T08:43:12;26.20;99.90
26107;DHT22;13866;50.748;12.630;2023-08-21T08:45:40;26.50;99.90
26107;DHT22;13866;50.748;12.630;2023-08-21T08:48:06;26.80;99.90
26107;DHT22;13866;50.748;12.630;2023-08-21T08:50:33;27.00;98.70
26107;DHT22;13866;50.748;12.630;2023-08-21T08:53:00;27.00;97.30
26107;DHT22;13866;50.748;12.630;2023-08-21T08:55:26;26.90;96.60
26107;DHT22;13866;50.748;12.630;2023-08-21T08:57:53;27.00;94.60
26107;DHT22;13866;50.748;12.630;2023-08-21T09:00:19;26.70;93.20
26107;DHT22;13866;50.748;12.630;2023-08-21T09:02:46;26.50;95.70
26107;DHT22;13866;50.748;12.630;2023-08-21T09:05:11;26.70;95.60
26107;DHT22;13866;50.748;12.630;2023-08-21T09:07:38;27.00;93.90
26107;DHT22;13866;50.748;12.630;2023-08-21T09:10:04;27.30;93.80
26107;DHT22;13866;50.748;12.630;2023-08-21T09:12:32;27.50;85.70
26107;DHT22;13866;50.748;12.630;2023-08-21T09:14:59;27.60;81.80
26107;DHT22;13866;50.748;12.630;2023-08-21T09:17:26;27.00;84.60
26107;DHT22;13866;50.748;12.630;2023-08-21T09:19:51;27.40;85.80
26107;DHT22;13866;50.748;12.630;2023-08-21T09:22:18;27.60;85.70
26107;DHT22;13866;50.748;12.630;2023-08-21T09:25:05;27.90;80.60
26107;DHT22;13866;50.748;12.630;2023-08-21T09:27:35;27.90;75.90
26107;DHT22;13866;50.748;12.630;2023-08-21T09:30:08;28.20;75.20
26107;DHT22;13866;50.748;12.630;2023-08-21T09:32:57;28.40;76.70
26107;DHT22;13866;50.748;12.630;2023-08-21T09:35:23;28.70;73.80
26107;DHT22;13866;50.748;12.630;2023-08-21T09:37:49;28.70;69.50
26107;DHT22;13866;50.748;12.630;2023-08-21T09:40:18;28.70;66.30
26107;DHT22;13866;50.748;12.630;2023-08-21T09:42:44;28.60;68.10
26107;DHT22;13866;50.748;12.630;2023-08-21T09:45:09;28.80;65.90
26107;DHT22;13866;50.748;12.630;2023-08-21T09:47:35;28.80;66.80
26107;DHT22;13866;50.748;12.630;2023-08-21T09:50:02;28.80;64.90
26107;DHT22;13866;50.748;12.630;2023-08-21T09:52:28;29.00;64.90
26107;DHT22;13866;50.748;12.630;2023-08-21T09:54:56;28.60;70.60
26107;DHT22;13866;50.748;12.630;2023-08-21T09:57:23;28.90;64.70
26107;DHT22;13866;50.748;12.630;2023-08-21T09:59:52;29.20;59.70
26107;DHT22;13866;50.748;12.630;2023-08-21T10:02:20;29.40;66.40
26107;DHT22;13866;50.748;12.630;2023-08-21T10:04:48;29.00;63.20
26107;DHT22;13866;50.748;12.630;2023-08-21T10:07:16;29.20;65.00
26107;DHT22;13866;50.748;12.630;2023-08-21T10:09:45;29.30;62.50
26107;DHT22;13866;50.748;12.630;2023-08-21T10:12:12;29.40;55.90
26107;DHT22;13866;50.748;12.630;2023-08-21T10:14:38;29.30;56.80
26107;DHT22;13866;50.748;12.630;2023-08-21T10:17:05;29.20;55.00
26107;DHT22;13866;50.748;12.630;2023-08-21T10:19:34;28.90;55.90
26107;DHT22;13866;50.748;12.630;2023-08-21T10:22:00;29.60;53.30
26107;DHT22;13866;50.748;12.630;2023-08-21T10:24:34;29.80;54.90
26107;DHT22;13866;50.748;12.630;2023-08-21T10:27:00;29.80;51.00
26107;DHT22;13866;50.748;12.630;2023-08-21T10:29:26;30.40;50.60
26107;DHT22;13866;50.748;12.630;2023-08-21T10:32:04;30.70;45.80
26107;DHT22;13866;50.748;12.630;2023-08-21T10:34:35;30.40;43.40
26107;DHT22;13866;50.748;12.630;2023-08-21T10:37:09;29.60;47.00
26107;DHT22;13866;50.748;12.630;2023-08-21T10:39:38;29.50;49.60
26107;DHT22;13866;50.748;12.630;2023-08-21T10:42:06;29.50;49.30
26107;DHT22;13866;50.748;12.630;2023-08-21T10:49:57;29.90;48.00
26107;DHT22;13866;50.748;12.630;2023-08-21T10:52:36;30.10;44.90
26107;DHT22;13866;50.748;12.630;2023-08-21T10:55:03;29.90;44.50
26107;DHT22;13866;50.748;12.630;2023-08-21T10:57:30;30.00;44.30
26107;DHT22;13866;50.748;12.630;2023-08-21T11:00:04;29.70;43.70
26107;DHT22;13866;50.748;12.630;2023-08-21T11:02:32;28.80;47.20
26107;DHT22;13866;50.748;12.630;2023-08-21T11:04:59;28.40;53.10
26107;DHT22;13866;50.748;12.630;2023-08-21T11:07:25;28.50;55.20
26107;DHT22;13866;50.748;12.630;2023-08-21T11:09:51;28.70;54.60
26107;DHT22;13866;50.748;12.630;2023-08-21T11:12:21;28.30;52.80
26107;DHT22;13866;50.748;12.630;2023-08-21T11:14:48;28.60;49.90
26107;DHT22;13866;50.748;12.630;2023-08-21T11:17:20;29.20;49.70
26107;DHT22;13866;50.748;12.630;2023-08-21T11:19:49;29.70;43.40
26107;DHT22;13866;50.748;12.630;2023-08-21T11:22:18;30.30;43.60
26107;DHT22;13866;50.748;12.630;2023-08-21T11:24:48;30.50;42.80
26107;DHT22;13866;50.748;12.630;2023-08-21T11:27:16;30.40;41.30
26107;DHT22;13866;50.748;12.630;2023-08-21T11:29:44;30.30;42.10
26107;DHT22;13866;50.748;12.630;2023-08-21T11:32:17;30.20;40.50
26107;DHT22;13866;50.748;12.630;2023-08-21T11:34:54;30.20;36.00
26107;DHT22;13866;50.748;12.630;2023-08-21T11:37:26;30.50;39.20
26107;DHT22;13866;50.748;12.630;2023-08-21T11:40:13;30.60;35.10
26107;DHT22;13866;50.748;12.630;2023-08-21T11:42:40;30.90;33.00
26107;DHT22;13866;50.748;12.630;2023-08-21T11:45:11;31.20;28.90
26107;DHT22;13866;50.748;12.630;2023-08-21T11:47:39;31.40;29.90
26107;DHT22;13866;50.748;12.630;2023-08-21T11:50:09;31.40;30.20
26107;DHT22;13866;50.748;12.630;2023-08-21T11:52:37;31.30;29.70
26107;DHT22;13866;50.748;12.630;2023-08-21T11:55:08;31.30;30.60
26107;DHT22;13866;50.748;12.630;2023-08-21T11:57:49;31.30;31.70
26107;DHT22;13866;50.748;12.630;2023-08-21T12:00:16;31.00;29.40
26107;DHT22;13866;50.748;12.630;2023-08-21T12:02:58;30.70;30.00
26107;DHT22;13866;50.748;12.630;2023-08-21T12:05:26;30.10;31.60
26107;DHT22;13866;50.748;12.630;2023-08-21T12:07:52;30.00;31.70
26107;DHT22;13866;50.748;12.630;2023-08-21T12:10:33;29.80;32.30
26107;DHT22;13866;50.748;12.630;2023-08-21T12:13:23;29.80;38.50
26107;DHT22;13866;50.748;12.630;2023-08-21T12:15:49;29.90;35.20
26107;DHT22;13866;50.748;12.630;2023-08-21T12:18:15;30.00;37.40
26107;DHT22;13866;50.748;12.630;2023-08-21T12:20:44;30.30;36.10
26107;DHT22;13866;50.748;12.630;2023-08-21T12:23:10;30.50;32.70
26107;DHT22;13866;50.748;12.630;2023-08-21T12:25:43;30.70;32.00
26107;DHT22;13866;50.748;12.630;2023-08-21T12:28:18;30.90;32.40
26107;DHT22;13866;50.748;12.630;2023-08-21T12:30:52;31.00;30.80
26107;DHT22;13866;50.748;12.630;2023-08-21T12:33:23;30.90;29.50
26107;DHT22;13866;50.748;12.630;2023-08-21T12:35:57;31.40;29.20
26107;DHT22;13866;50.748;12.630;2023-08-21T12:38:31;31.30;29.20
26107;DHT22;13866;50.748;12.630;2023-08-21T12:41:18;31.20;27.00
26107;DHT22;13866;50.748;12.630;2023-08-21T12:43:44;30.90;31.10
26107;DHT22;13866;50.748;12.630;2023-08-21T12:46:12;30.90;29.70
26107;DHT22;13866;50.748;12.630;2023-08-21T12:48:41;31.00;33.10
26107;DHT22;13866;50.748;12.630;2023-08-21T12:51:07;31.10;28.50
26107;DHT22;13866;50.748;12.630;2023-08-21T12:53:37;31.20;26.60
26107;DHT22;13866;50.748;12.630;2023-08-21T12:56:03;31.50;28.70
26107;DHT22;13866;50.748;12.630;2023-08-21T12:58:35;31.20;26.90
26107;DHT22;13866;50.748;12.630;2023-08-21T13:01:05;31.00;27.80
26107;DHT22;13866;50.748;12.630;2023-08-21T13:03:32;31.20;26.80
26107;DHT22;13866;50.748;12.630;2023-08-21T13:06:01;31.30;28.80
26107;DHT22;13866;50.748;12.630;2023-08-21T13:08:31;30.90;27.40
26107;DHT22;13866;50.748;12.630;2023-08-21T13:11:04;30.60;27.40
26107;DHT22;13866;50.748;12.630;2023-08-21T13:13:31;30.30;27.40
26107;DHT22;13866;50.748;12.630;2023-08-21T13:16:00;30.00;27.80
26107;DHT22;13866;50.748;12.630;2023-08-21T13:18:28;29.50;29.20
26107;DHT22;13866;50.748;12.630;2023-08-21T13:20:57;29.40;30.50
26107;DHT22;13866;50.748;12.630;2023-08-21T13:23:23;29.30;32.80
26107;DHT22;13866;50.748;12.630;2023-08-21T13:25:50;29.20;32.00
26107;DHT22;13866;50.748;12.630;2023-08-21T13:28:18;29.20;31.00
26107;DHT22;13866;50.748;12.630;2023-08-21T13:30:47;29.00;31.70
26107;DHT22;13866;50.748;12.630;2023-08-21T13:33:16;29.30;30.20
26107;DHT22;13866;50.748;12.630;2023-08-21T13:35:45;29.40;32.60
26107;DHT22;13866;50.748;12.630;2023-08-21T13:38:13;29.80;31.00
26107;DHT22;13866;50.748;12.630;2023-08-21T13:40:39;29.80;31.00
26107;DHT22;13866;50.748;12.630;2023-08-21T13:43:11;29.70;29.50
26107;DHT22;13866;50.748;12.630;2023-08-21T13:45:42;29.90;31.20
26107;DHT22;13866;50.748;12.630;2023-08-21T13:48:08;29.80;31.00
26107;DHT22;13866;50.748;12.630;2023-08-21T13:50:35;29.70;30.00
26107;DHT22;13866;50.748;12.630;2023-08-21T13:53:03;29.60;30.50
26107;DHT22;13866;50.748;12.630;2023-08-21T13:55:29;29.20;29.60
26107;DHT22;13866;50.748;12.630;2023-08-21T13:57:55;29.00;31.70
26107;DHT22;13866;50.748;12.630;2023-08-21T14:00:24;28.90;32.30
26107;DHT22;13866;50.748;12.630;2023-08-21T14:02:50;29.10;32.00
26107;DHT22;13866;50.748;12.630;2023-08-21T14:08:02;29.30;33.60
26107;DHT22;13866;50.748;12.630;2023-08-21T14:10:31;29.60;32.70
26107;DHT22;13866;50.748;12.630;2023-08-21T14:12:56;29.70;29.50
26107;DHT22;13866;50.748;12.630;2023-08-21T14:15:23;29.70;28.30
26107;DHT22;13866;50.748;12.630;2023-08-21T14:17:49;29.50;24.90
26107;DHT22;13866;50.748;12.630;2023-08-21T14:20:26;29.50;24.60
26107;DHT22;13866;50.748;12.630;2023-08-21T14:22:52;29.30;25.50
26107;DHT22;13866;50.748;12.630;2023-08-21T14:25:21;29.00;26.30
26107;DHT22;13866;50.748;12.630;2023-08-21T14:27:48;28.90;24.90
26107;DHT22;13866;50.748;12.630;2023-08-21T14:30:15;28.80;26.30
26107;DHT22;13866;50.748;12.630;2023-08-21T14:32:47;28.60;25.50
26107;DHT22;13866;50.748;12.630;2023-08-21T14:35:13;28.50;25.90
26107;DHT22;13866;50.748;12.630;2023-08-21T14:37:40;28.50;27.00
26107;DHT22;13866;50.748;12.630;2023-08-21T14:40:06;28.50;26.30
26107;DHT22;13866;50.748;12.630;2023-08-21T14:42:35;28.60;27.40
26107;DHT22;13866;50.748;12.630;2023-08-21T14:45:01;28.50;28.40
26107;DHT22;13866;50.748;12.630;2023-08-21T14:47:26;28.40;28.30
26107;DHT22;13866;50.748;12.630;2023-08-21T14:49:52;28.40;27.00
26107;DHT22;13866;50.748;12.630;2023-08-21T14:52:18;28.50;27.60
26107;DHT22;13866;50.748;12.630;2023-08-21T14:54:43;28.80;27.50
26107;DHT22;13866;50.748;12.630;2023-08-21T14:57:09;28.90;27.40
26107;DHT22;13866;50.748;12.630;2023-08-21T14:59:34;28.90;27.00
26107;DHT22;13866;50.748;12.630;2023-08-21T15:02:00;28.90;26.20
26107;DHT22;13866;50.748;12.630;2023-08-21T15:04:25;28.70;26.40
26107;DHT22;13866;50.748;12.630;2023-08-21T15:06:51;28.60;27.50
26107;DHT22;13866;50.748;12.630;2023-08-21T15:09:16;28.60;27.50
26107;DHT22;13866;50.748;12.630;2023-08-21T15:11:42;28.70;27.10
26107;DHT22;13866;50.748;12.630;2023-08-21T15:14:11;28.90;27.20
26107;DHT22;13866;50.748;12.630;2023-08-21T15:16:37;29.00;28.40
26107;DHT22;13866;50.748;12.630;2023-08-21T15:19:03;29.10;27.90
26107;DHT22;13866;50.748;12.630;2023-08-21T15:21:28;29.20;27.40
26107;DHT22;13866;50.748;12.630;2023-08-21T15:23:54;29.30;26.60
26107;DHT22;13866;50.748;12.630;2023-08-21T15:26:20;29.40;25.70